sensor_id;sensor_type;location;lat;lon;timestamp;temperature;humidity
66057;DHT22;52842;52.666;5.202;2023-03-01T00:01:00;19.00;50.90
66057;DHT22;52842;52.666;5.202;2023-03-01T00:03:28;19.40;49.80
66057;DHT22;52842;52.666;5.202;2023-03-01T00:05:55;19.70;48.80
66057;DHT22;52842;52.666;5.202;2023-03-01T00:08:21;19.80;48.10
66057;DHT22;52842;52.666;5.202;2023-03-01T00:10:48;20.00;47.80
66057;DHT22;52842;52.666;5.202;2023-03-01T00:13:15;19.90;47.90
66057;DHT22;52842;52.666;5.202;2023-03-01T00:15:41;19.70;48.30
66057;DHT22;52842;52.666;5.202;2023-03-01T00:18:09;19.40;48.80
66057;DHT22;52842;52.666;5.202;2023-03-01T00:20:37;19.10;49.40
66057;DHT22;52842;52.666;5.202;2023-03-01T00:23:03;18.90;49.90
66057;DHT22;52842;52.666;5.202;2023-03-01T00:25:30;18.60;50.40
66057;DHT22;52842;52.666;5.202;2023-03-01T00:27:57;18.50;50.90
66057;DHT22;52842;52.666;5.202;2023-03-01T00:30:24;18.30;51.30
66057;DHT22;52842;52.666;5.202;2023-03-01T00:32:50;18.10;51.70
66057;DHT22;52842;52.666;5.202;2023-03-01T00:35:17;18.00;52.00
66057;DHT22;52842;52.666;5.202;2023-03-01T00:37:45;17.90;52.30
66057;DHT22;52842;52.666;5.202;2023-03-01T00:40:12;17.80;52.60
66057;DHT22;52842;52.666;5.202;2023-03-01T00:42:41;17.70;52.40
66057;DHT22;52842;52.666;5.202;2023-03-01T00:45:08;17.60;52.50
66057;DHT22;52842;52.666;5.202;2023-03-01T00:47:35;17.50;52.60
66057;DHT22;52842;52.666;5.202;2023-03-01T00:50:01;17.50;52.80
66057;DHT22;52842;52.666;5.202;2023-03-01T00:52:28;17.50;52.70
66057;DHT22;52842;52.666;5.202;2023-03-01T00:54:56;17.50;52.90
66057;DHT22;52842;52.666;5.202;2023-03-01T00:57:24;17.40;52.80
66057;DHT22;52842;52.666;5.202;2023-03-01T00:59:50;17.40;52.80
66057;DHT22;52842;52.666;5.202;2023-03-01T01:02:18;17.50;52.60
66057;DHT22;52842;52.666;5.202;2023-03-01T01:04:45;17.90;52.00
66057;DHT22;52842;52.666;5.202;2023-03-01T01:07:12;18.40;51.10
66057;DHT22;52842;52.666;5.202;2023-03-01T01:09:39;18.90;50.10
66057;DHT22;52842;52.666;5.202;2023-03-01T01:12:07;19.30;49.10
66057;DHT22;52842;52.666;5.202;2023-03-01T01:14:34;19.70;48.20
66057;DHT22;52842;52.666;5.202;2023-03-01T01:17:00;19.90;47.20
66057;DHT22;52842;52.666;5.202;2023-03-01T01:19:27;20.10;46.80
66057;DHT22;52842;52.666;5.202;2023-03-01T01:21:54;20.20;46.40
66057;DHT22;52842;52.666;5.202;2023-03-01T01:24:20;20.20;46.40
66057;DHT22;52842;52.666;5.202;2023-03-01T01:26:47;20.00;46.90
66057;DHT22;52842;52.666;5.202;2023-03-01T01:29:15;19.70;47.40
66057;DHT22;52842;52.666;5.202;2023-03-01T01:31:42;19.40;48.00
66057;DHT22;52842;52.666;5.202;2023-03-01T01:34:12;19.10;48.60
66057;DHT22;52842;52.666;5.202;2023-03-01T01:36:39;18.90;49.20
66057;DHT22;52842;52.666;5.202;2023-03-01T01:39:06;18.70;49.70
66057;DHT22;52842;52.666;5.202;2023-03-01T01:41:39;18.40;50.10
66057;DHT22;52842;52.666;5.202;2023-03-01T01:44:10;18.20;50.60
66057;DHT22;52842;52.666;5.202;2023-03-01T01:46:38;18.10;50.90
66057;DHT22;52842;52.666;5.202;2023-03-01T01:49:07;17.90;51.20
66057;DHT22;52842;52.666;5.202;2023-03-01T01:51:37;17.80;51.50
66057;DHT22;52842;52.666;5.202;2023-03-01T01:54:06;17.70;51.70
66057;DHT22;52842;52.666;5.202;2023-03-01T01:56:35;17.60;51.70
66057;DHT22;52842;52.666;5.202;2023-03-01T01:59:03;17.60;51.90
66057;DHT22;52842;52.666;5.202;2023-03-01T02:01:30;17.50;52.00
66057;DHT22;52842;52.666;5.202;2023-03-01T02:03:58;17.50;52.00
66057;DHT22;52842;52.666;5.202;2023-03-01T02:06:26;17.40;51.90
66057;DHT22;52842;52.666;5.202;2023-03-01T02:08:55;17.40;52.00
66057;DHT22;52842;52.666;5.202;2023-03-01T02:11:23;17.40;52.00
66057;DHT22;52842;52.666;5.202;2023-03-01T02:13:51;17.50;51.80
66057;DHT22;52842;52.666;5.202;2023-03-01T02:16:19;17.90;51.20
66057;DHT22;52842;52.666;5.202;2023-03-01T02:18:46;18.30;50.50
66057;DHT22;52842;52.666;5.202;2023-03-01T02:21:20;18.80;49.40
66057;DHT22;52842;52.666;5.202;2023-03-01T02:23:51;19.10;48.70
66057;DHT22;52842;52.666;5.202;2023-03-01T02:26:20;19.50;47.80
66057;DHT22;52842;52.666;5.202;2023-03-01T02:28:48;19.80;46.90
66057;DHT22;52842;52.666;5.202;2023-03-01T02:31:16;20.10;46.30
66057;DHT22;52842;52.666;5.202;2023-03-01T02:34:01;20.20;45.80
66057;DHT22;52842;52.666;5.202;2023-03-01T02:36:31;20.20;45.40
66057;DHT22;52842;52.666;5.202;2023-03-01T02:38:58;20.20;45.20
66057;DHT22;52842;52.666;5.202;2023-03-01T02:41:27;20.00;45.70
66057;DHT22;52842;52.666;5.202;2023-03-01T02:43:56;19.70;46.50
66057;DHT22;52842;52.666;5.202;2023-03-01T02:46:23;19.40;47.10
66057;DHT22;52842;52.666;5.202;2023-03-01T02:48:51;19.10;47.70
66057;DHT22;52842;52.666;5.202;2023-03-01T02:51:22;18.80;48.30
66057;DHT22;52842;52.666;5.202;2023-03-01T02:53:54;18.60;48.80
66057;DHT22;52842;52.666;5.202;2023-03-01T02:56:25;18.40;49.30
66057;DHT22;52842;52.666;5.202;2023-03-01T02:58:51;18.20;49.80
66057;DHT22;52842;52.666;5.202;2023-03-01T03:01:20;18.00;50.10
66057;DHT22;52842;52.666;5.202;2023-03-01T03:03:47;17.90;50.50
66057;DHT22;52842;52.666;5.202;2023-03-01T03:06:13;17.70;50.70
66057;DHT22;52842;52.666;5.202;2023-03-01T03:08:40;17.60;51.00
66057;DHT22;52842;52.666;5.202;2023-03-01T03:11:06;17.60;50.90
66057;DHT22;52842;52.666;5.202;2023-03-01T03:13:33;17.50;50.90
66057;DHT22;52842;52.666;5.202;2023-03-01T03:16:00;17.40;51.10
66057;DHT22;52842;52.666;5.202;2023-03-01T03:18:30;17.40;51.20
66057;DHT22;52842;52.666;5.202;2023-03-01T03:20:56;17.40;51.20
66057;DHT22;52842;52.666;5.202;2023-03-01T03:23:23;17.40;51.20
66057;DHT22;52842;52.666;5.202;2023-03-01T03:25:50;17.60;50.90
66057;DHT22;52842;52.666;5.202;2023-03-01T03:28:17;18.00;50.30
66057;DHT22;52842;52.666;5.202;2023-03-01T03:30:44;18.40;49.30
66057;DHT22;52842;52.666;5.202;2023-03-01T03:33:12;18.80;48.50
66057;DHT22;52842;52.666;5.202;2023-03-01T03:35:41;19.20;47.60
66057;DHT22;52842;52.666;5.202;2023-03-01T03:38:09;19.50;46.90
66057;DHT22;52842;52.666;5.202;2023-03-01T03:40:42;19.80;46.30
66057;DHT22;52842;52.666;5.202;2023-03-01T03:43:09;20.00;45.80
66057;DHT22;52842;52.666;5.202;2023-03-01T03:45:37;20.20;45.20
66057;DHT22;52842;52.666;5.202;2023-03-01T03:48:05;20.30;44.80
66057;DHT22;52842;52.666;5.202;2023-03-01T03:50:32;20.30;45.10
66057;DHT22;52842;52.666;5.202;2023-03-01T03:53:01;20.30;44.20
66057;DHT22;52842;52.666;5.202;2023-03-01T03:55:28;20.30;44.20
66057;DHT22;52842;52.666;5.202;2023-03-01T03:57:56;20.00;44.70
66057;DHT22;52842;52.666;5.202;2023-03-01T04:00:23;19.70;45.40
66057;DHT22;52842;52.666;5.202;2023-03-01T04:02:50;19.40;46.00
66057;DHT22;52842;52.666;5.202;2023-03-01T04:05:21;19.00;46.80
66057;DHT22;52842;52.666;5.202;2023-03-01T04:07:48;18.80;47.50
66057;DHT22;52842;52.666;5.202;2023-03-01T04:10:28;18.50;48.00
66057;DHT22;52842;52.666;5.202;2023-03-01T04:12:55;18.30;48.60
66057;DHT22;52842;52.666;5.202;2023-03-01T04:15:22;18.10;49.10
66057;DHT22;52842;52.666;5.202;2023-03-01T04:17:50;17.90;49.40
66057;DHT22;52842;52.666;5.202;2023-03-01T04:20:18;17.80;49.80
66057;DHT22;52842;52.666;5.202;2023-03-01T04:22:50;17.60;50.00
66057;DHT22;52842;52.666;5.202;2023-03-01T04:25:17;17.50;50.40
66057;DHT22;52842;52.666;5.202;2023-03-01T04:27:45;17.50;50.70
66057;DHT22;52842;52.666;5.202;2023-03-01T04:30:12;17.50;50.20
66057;DHT22;52842;52.666;5.202;2023-03-01T04:32:39;17.40;50.20
66057;DHT22;52842;52.666;5.202;2023-03-01T04:35:05;17.30;50.20
66057;DHT22;52842;52.666;5.202;2023-03-01T04:37:32;17.50;50.00
66057;DHT22;52842;52.666;5.202;2023-03-01T04:40:00;17.80;49.50
66057;DHT22;52842;52.666;5.202;2023-03-01T04:42:33;18.20;48.90
66057;DHT22;52842;52.666;5.202;2023-03-01T04:45:01;18.60;47.80
66057;DHT22;52842;52.666;5.202;2023-03-01T04:47:27;18.90;47.30
66057;DHT22;52842;52.666;5.202;2023-03-01T04:49:54;19.30;46.60
66057;DHT22;52842;52.666;5.202;2023-03-01T04:52:21;19.60;46.00
66057;DHT22;52842;52.666;5.202;2023-03-01T04:54:47;19.80;45.40
66057;DHT22;52842;52.666;5.202;2023-03-01T04:57:14;20.00;45.50
66057;DHT22;52842;52.666;5.202;2023-03-01T04:59:41;20.20;44.40
66057;DHT22;52842;52.666;5.202;2023-03-01T05:02:09;20.20;44.00
66057;DHT22;52842;52.666;5.202;2023-03-01T05:04:35;20.20;43.80
66057;DHT22;52842;52.666;5.202;2023-03-01T05:07:02;20.20;43.70
66057;DHT22;52842;52.666;5.202;2023-03-01T05:09:29;20.00;44.10
66057;DHT22;52842;52.666;5.202;2023-03-01T05:11:56;19.70;44.70
66057;DHT22;52842;52.666;5.202;2023-03-01T05:14:22;19.40;45.30
66057;DHT22;52842;52.666;5.202;2023-03-01T05:16:49;19.10;46.00
66057;DHT22;52842;52.666;5.202;2023-03-01T05:19:17;18.80;46.50
66057;DHT22;52842;52.666;5.202;2023-03-01T05:21:47;18.50;47.20
66057;DHT22;52842;52.666;5.202;2023-03-01T05:24:30;18.30;47.80
66057;DHT22;52842;52.666;5.202;2023-03-01T05:26:57;18.10;48.40
66057;DHT22;52842;52.666;5.202;2023-03-01T05:29:25;17.80;48.70
66057;DHT22;52842;52.666;5.202;2023-03-01T05:31:52;17.70;49.10
66057;DHT22;52842;52.666;5.202;2023-03-01T05:34:24;17.50;49.40
66057;DHT22;52842;52.666;5.202;2023-03-01T05:36:51;17.40;49.70
66057;DHT22;52842;52.666;5.202;2023-03-01T05:39:19;17.30;49.90
66057;DHT22;52842;52.666;5.202;2023-03-01T05:41:46;17.30;49.90
66057;DHT22;52842;52.666;5.202;2023-03-01T05:44:13;17.20;49.80
66057;DHT22;52842;52.666;5.202;2023-03-01T05:46:40;17.10;49.90
66057;DHT22;52842;52.666;5.202;2023-03-01T05:49:06;17.10;50.00
66057;DHT22;52842;52.666;5.202;2023-03-01T05:51:34;17.20;50.00
66057;DHT22;52842;52.666;5.202;2023-03-01T05:54:01;17.30;50.20
66057;DHT22;52842;52.666;5.202;2023-03-01T05:56:28;17.60;50.30
66057;DHT22;52842;52.666;5.202;2023-03-01T05:58:55;17.90;49.70
66057;DHT22;52842;52.666;5.202;2023-03-01T06:01:21;18.30;49.20
66057;DHT22;52842;52.666;5.202;2023-03-01T06:03:48;18.60;48.60
66057;DHT22;52842;52.666;5.202;2023-03-01T06:06:15;19.00;48.00
66057;DHT22;52842;52.666;5.202;2023-03-01T06:08:43;19.30;47.40
66057;DHT22;52842;52.666;5.202;2023-03-01T06:11:10;19.50;46.80
66057;DHT22;52842;52.666;5.202;2023-03-01T06:13:36;19.70;46.10
66057;DHT22;52842;52.666;5.202;2023-03-01T06:16:04;19.90;45.70
66057;DHT22;52842;52.666;5.202;2023-03-01T06:18:31;19.90;45.10
66057;DHT22;52842;52.666;5.202;2023-03-01T06:20:57;20.00;44.90
66057;DHT22;52842;52.666;5.202;2023-03-01T06:23:24;20.10;44.80
66057;DHT22;52842;52.666;5.202;2023-03-01T06:25:52;20.20;44.60
66057;DHT22;52842;52.666;5.202;2023-03-01T06:28:19;20.20;44.50
66057;DHT22;52842;52.666;5.202;2023-03-01T06:30:45;20.30;44.50
66057;DHT22;52842;52.666;5.202;2023-03-01T06:33:12;20.30;44.30
66057;DHT22;52842;52.666;5.202;2023-03-01T06:35:39;20.30;44.20
66057;DHT22;52842;52.666;5.202;2023-03-01T06:38:06;20.40;44.30
66057;DHT22;52842;52.666;5.202;2023-03-01T06:40:32;20.40;44.20
66057;DHT22;52842;52.666;5.202;2023-03-01T06:43:01;20.40;44.20
66057;DHT22;52842;52.666;5.202;2023-03-01T06:45:28;20.50;44.20
66057;DHT22;52842;52.666;5.202;2023-03-01T06:48:01;20.50;44.10
66057;DHT22;52842;52.666;5.202;2023-03-01T06:50:27;20.60;44.00
66057;DHT22;52842;52.666;5.202;2023-03-01T06:52:55;20.60;44.20
66057;DHT22;52842;52.666;5.202;2023-03-01T06:55:22;20.60;44.20
66057;DHT22;52842;52.666;5.202;2023-03-01T06:57:48;20.60;44.00
66057;DHT22;52842;52.666;5.202;2023-03-01T07:00:17;20.60;44.10
66057;DHT22;52842;52.666;5.202;2023-03-01T07:02:44;20.50;44.20
66057;DHT22;52842;52.666;5.202;2023-03-01T07:05:11;20.40;44.30
66057;DHT22;52842;52.666;5.202;2023-03-01T07:07:37;20.40;44.50
66057;DHT22;52842;52.666;5.202;2023-03-01T07:10:05;20.30;44.50
66057;DHT22;52842;52.666;5.202;2023-03-01T07:12:31;20.30;44.60
66057;DHT22;52842;52.666;5.202;2023-03-01T07:14:58;20.30;44.80
66057;DHT22;52842;52.666;5.202;2023-03-01T07:17:26;20.20;44.90
66057;DHT22;52842;52.666;5.202;2023-03-01T07:19:53;20.20;45.00
66057;DHT22;52842;52.666;5.202;2023-03-01T07:22:19;20.20;45.20
66057;DHT22;52842;52.666;5.202;2023-03-01T07:24:46;20.30;45.10
66057;DHT22;52842;52.666;5.202;2023-03-01T07:27:13;20.40;44.90
66057;DHT22;52842;52.666;5.202;2023-03-01T07:29:39;20.60;44.70
66057;DHT22;52842;52.666;5.202;2023-03-01T07:32:06;20.80;44.40
66057;DHT22;52842;52.666;5.202;2023-03-01T07:34:34;21.00;44.00
66057;DHT22;52842;52.666;5.202;2023-03-01T07:37:01;21.20;43.80
66057;DHT22;52842;52.666;5.202;2023-03-01T07:39:28;21.00;43.60
66057;DHT22;52842;52.666;5.202;2023-03-01T07:41:54;20.70;44.50
66057;DHT22;52842;52.666;5.202;2023-03-01T07:44:21;20.30;44.40
66057;DHT22;52842;52.666;5.202;2023-03-01T07:46:48;20.00;44.90
66057;DHT22;52842;52.666;5.202;2023-03-01T07:49:14;19.70;45.40
66057;DHT22;52842;52.666;5.202;2023-03-01T07:51:43;19.50;45.90
66057;DHT22;52842;52.666;5.202;2023-03-01T07:54:10;19.20;46.60
66057;DHT22;52842;52.666;5.202;2023-03-01T07:56:37;19.00;47.40
66057;DHT22;52842;52.666;5.202;2023-03-01T07:59:04;18.80;47.70
66057;DHT22;52842;52.666;5.202;2023-03-01T08:01:30;18.70;48.10
66057;DHT22;52842;52.666;5.202;2023-03-01T08:03:57;18.50;48.40
66057;DHT22;52842;52.666;5.202;2023-03-01T08:06:24;18.40;48.90
66057;DHT22;52842;52.666;5.202;2023-03-01T08:08:52;18.30;49.50
66057;DHT22;52842;52.666;5.202;2023-03-01T08:11:20;18.20;49.90
66057;DHT22;52842;52.666;5.202;2023-03-01T08:13:47;18.10;50.20
66057;DHT22;52842;52.666;5.202;2023-03-01T08:16:15;17.90;50.60
66057;DHT22;52842;52.666;5.202;2023-03-01T08:18:42;17.80;51.00
66057;DHT22;52842;52.666;5.202;2023-03-01T08:21:09;17.80;51.20
66057;DHT22;52842;52.666;5.202;2023-03-01T08:23:36;17.70;52.20
66057;DHT22;52842;52.666;5.202;2023-03-01T08:26:05;17.60;51.80
66057;DHT22;52842;52.666;5.202;2023-03-01T08:28:32;17.50;51.80
66057;DHT22;52842;52.666;5.202;2023-03-01T08:30:59;17.40;52.20
66057;DHT22;52842;52.666;5.202;2023-03-01T08:33:25;17.40;52.40
66057;DHT22;52842;52.666;5.202;2023-03-01T08:35:52;17.30;52.60
66057;DHT22;52842;52.666;5.202;2023-03-01T08:38:19;17.30;52.80
66057;DHT22;52842;52.666;5.202;2023-03-01T08:40:45;17.20;52.90
66057;DHT22;52842;52.666;5.202;2023-03-01T08:43:13;17.10;53.00
66057;DHT22;52842;52.666;5.202;2023-03-01T08:45:40;17.10;53.30
66057;DHT22;52842;52.666;5.202;2023-03-01T08:48:07;17.00;53.30
66057;DHT22;52842;52.666;5.202;2023-03-01T08:50:34;17.00;53.40
66057;DHT22;52842;52.666;5.202;2023-03-01T08:53:00;16.90;53.50
66057;DHT22;52842;52.666;5.202;2023-03-01T08:55:27;16.80;53.50
66057;DHT22;52842;52.666;5.202;2023-03-01T08:57:54;16.80;53.70
66057;DHT22;52842;52.666;5.202;2023-03-01T09:00:25;16.80;53.80
66057;DHT22;52842;52.666;5.202;2023-03-01T09:02:52;16.70;53.90
66057;DHT22;52842;52.666;5.202;2023-03-01T09:05:18;16.70;54.00
66057;DHT22;52842;52.666;5.202;2023-03-01T09:07:45;16.60;54.10
66057;DHT22;52842;52.666;5.202;2023-03-01T09:10:12;16.50;54.10
66057;DHT22;52842;52.666;5.202;2023-03-01T09:12:38;16.50;54.20
66057;DHT22;52842;52.666;5.202;2023-03-01T09:15:05;16.50;54.30
66057;DHT22;52842;52.666;5.202;2023-03-01T09:17:34;16.40;54.30
66057;DHT22;52842;52.666;5.202;2023-03-01T09:20:00;16.40;54.50
66057;DHT22;52842;52.666;5.202;2023-03-01T09:22:30;16.40;54.80
66057;DHT22;52842;52.666;5.202;2023-03-01T09:24:59;16.40;54.90
66057;DHT22;52842;52.666;5.202;2023-03-01T09:27:25;16.40;54.70
66057;DHT22;52842;52.666;5.202;2023-03-01T09:29:52;16.40;54.70
66057;DHT22;52842;52.666;5.202;2023-03-01T09:32:21;16.40;54.80
66057;DHT22;52842;52.666;5.202;2023-03-01T09:34:49;16.40;55.00
66057;DHT22;52842;52.666;5.202;2023-03-01T09:37:30;16.30;55.00
66057;DHT22;52842;52.666;5.202;2023-03-01T09:39:57;16.30;55.20
66057;DHT22;52842;52.666;5.202;2023-03-01T09:42:23;16.20;55.20
66057;DHT22;52842;52.666;5.202;2023-03-01T09:44:51;16.20;55.40
66057;DHT22;52842;52.666;5.202;2023-03-01T09:47:18;16.20;55.50
66057;DHT22;52842;52.666;5.202;2023-03-01T09:49:46;16.10;55.50
66057;DHT22;52842;52.666;5.202;2023-03-01T09:52:19;16.10;55.70
66057;DHT22;52842;52.666;5.202;2023-03-01T09:54:48;16.10;55.90
66057;DHT22;52842;52.666;5.202;2023-03-01T09:57:17;16.00;55.90
66057;DHT22;52842;52.666;5.202;2023-03-01T09:59:51;16.00;56.00
66057;DHT22;52842;52.666;5.202;2023-03-01T10:02:23;15.90;56.10
66057;DHT22;52842;52.666;5.202;2023-03-01T10:04:50;15.90;56.10
66057;DHT22;52842;52.666;5.202;2023-03-01T10:07:25;15.90;56.00
66057;DHT22;52842;52.666;5.202;2023-03-01T10:09:53;15.90;55.80
66057;DHT22;52842;52.666;5.202;2023-03-01T10:12:20;15.90;56.00
66057;DHT22;52842;52.666;5.202;2023-03-01T10:14:51;15.90;56.00
66057;DHT22;52842;52.666;5.202;2023-03-01T10:17:24;15.80;56.00
66057;DHT22;52842;52.666;5.202;2023-03-01T10:19:52;15.90;55.80
66057;DHT22;52842;52.666;5.202;2023-03-01T10:22:19;16.00;55.60
66057;DHT22;52842;52.666;5.202;2023-03-01T10:24:48;16.10;55.70
66057;DHT22;52842;52.666;5.202;2023-03-01T10:27:17;16.20;56.10
66057;DHT22;52842;52.666;5.202;2023-03-01T10:29:47;16.30;56.40
66057;DHT22;52842;52.666;5.202;2023-03-01T10:32:15;16.50;56.30
66057;DHT22;52842;52.666;5.202;2023-03-01T10:34:42;16.70;55.50
66057;DHT22;52842;52.666;5.202;2023-03-01T10:37:10;17.20;55.40
66057;DHT22;52842;52.666;5.202;2023-03-01T10:39:37;17.70;53.60
66057;DHT22;52842;52.666;5.202;2023-03-01T10:42:22;18.20;52.40
66057;DHT22;52842;52.666;5.202;2023-03-01T10:44:51;18.60;51.30
66057;DHT22;52842;52.666;5.202;2023-03-01T10:47:20;19.00;50.50
66057;DHT22;52842;52.666;5.202;2023-03-01T10:49:51;19.20;49.70
66057;DHT22;52842;52.666;5.202;2023-03-01T10:52:18;19.40;49.10
66057;DHT22;52842;52.666;5.202;2023-03-01T10:54:50;19.60;48.60
66057;DHT22;52842;52.666;5.202;2023-03-01T10:57:24;19.70;48.40
66057;DHT22;52842;52.666;5.202;2023-03-01T11:00:00;19.80;48.10
66057;DHT22;52842;52.666;5.202;2023-03-01T11:02:28;19.80;48.00
66057;DHT22;52842;52.666;5.202;2023-03-01T11:04:58;19.90;47.90
66057;DHT22;52842;52.666;5.202;2023-03-01T11:07:25;19.90;47.80
66057;DHT22;52842;52.666;5.202;2023-03-01T11:09:52;19.90;47.70
66057;DHT22;52842;52.666;5.202;2023-03-01T11:12:19;20.00;47.70
66057;DHT22;52842;52.666;5.202;2023-03-01T11:14:48;20.00;47.80
66057;DHT22;52842;52.666;5.202;2023-03-01T11:17:17;19.90;47.60
66057;DHT22;52842;52.666;5.202;2023-03-01T11:19:44;19.90;47.70
66057;DHT22;52842;52.666;5.202;2023-03-01T11:22:25;20.00;48.50
66057;DHT22;52842;52.666;5.202;2023-03-01T11:24:53;19.90;47.80
66057;DHT22;52842;52.666;5.202;2023-03-01T11:27:21;19.90;47.80
66057;DHT22;52842;52.666;5.202;2023-03-01T11:29:51;19.90;47.90
66057;DHT22;52842;52.666;5.202;2023-03-01T11:32:20;19.90;47.90
66057;DHT22;52842;52.666;5.202;2023-03-01T11:34:52;19.90;48.00
66057;DHT22;52842;52.666;5.202;2023-03-01T11:37:21;20.00;48.00
66057;DHT22;52842;52.666;5.202;2023-03-01T11:39:52;20.00;47.90
66057;DHT22;52842;52.666;5.202;2023-03-01T11:42:24;20.10;47.70
66057;DHT22;52842;52.666;5.202;2023-03-01T11:44:54;20.10;47.70
66057;DHT22;52842;52.666;5.202;2023-03-01T11:47:33;20.00;47.90
66057;DHT22;52842;52.666;5.202;2023-03-01T11:50:11;19.80;48.30
66057;DHT22;52842;52.666;5.202;2023-03-01T11:52:41;19.60;48.80
66057;DHT22;52842;52.666;5.202;2023-03-01T11:55:20;19.40;49.20
66057;DHT22;52842;52.666;5.202;2023-03-01T12:00:51;19.10;49.90
66057;DHT22;52842;52.666;5.202;2023-03-01T12:03:30;18.90;50.20
66057;DHT22;52842;52.666;5.202;2023-03-01T12:06:02;18.80;50.40
66057;DHT22;52842;52.666;5.202;2023-03-01T12:08:33;18.70;50.60
66057;DHT22;52842;52.666;5.202;2023-03-01T12:11:03;18.60;50.80
66057;DHT22;52842;52.666;5.202;2023-03-01T12:16:18;18.70;51.30
66057;DHT22;52842;52.666;5.202;2023-03-01T12:21:30;19.40;50.50
66057;DHT22;52842;52.666;5.202;2023-03-01T12:24:23;19.50;50.50
66057;DHT22;52842;52.666;5.202;2023-03-01T12:26:59;19.50;50.60
66057;DHT22;52842;52.666;5.202;2023-03-01T12:29:32;19.40;50.90
66057;DHT22;52842;52.666;5.202;2023-03-01T12:32:12;19.60;50.70
66057;DHT22;52842;52.666;5.202;2023-03-01T12:34:48;19.90;50.10
66057;DHT22;52842;52.666;5.202;2023-03-01T12:37:21;20.10;49.40
66057;DHT22;52842;52.666;5.202;2023-03-01T12:39:54;20.30;49.00
66057;DHT22;52842;52.666;5.202;2023-03-01T12:42:23;20.20;49.00
66057;DHT22;52842;52.666;5.202;2023-03-01T12:45:02;20.00;49.10
66057;DHT22;52842;52.666;5.202;2023-03-01T12:47:47;19.80;49.40
66057;DHT22;52842;52.666;5.202;2023-03-01T12:50:19;19.50;49.80
66057;DHT22;52842;52.666;5.202;2023-03-01T12:52:47;19.30;50.10
66057;DHT22;52842;52.666;5.202;2023-03-01T12:55:19;19.20;50.20
66057;DHT22;52842;52.666;5.202;2023-03-01T12:57:51;19.00;50.20
66057;DHT22;52842;52.666;5.202;2023-03-01T13:00:24;18.90;50.60
66057;DHT22;52842;52.666;5.202;2023-03-01T13:02:57;18.80;51.00
66057;DHT22;52842;52.666;5.202;2023-03-01T13:05:29;18.70;51.20
66057;DHT22;52842;52.666;5.202;2023-03-01T13:08:01;18.60;51.70
66057;DHT22;52842;52.666;5.202;2023-03-01T13:10:33;18.50;52.00
66057;DHT22;52842;52.666;5.202;2023-03-01T13:13:02;18.50;52.30
66057;DHT22;52842;52.666;5.202;2023-03-01T13:15:30;18.40;52.70
66057;DHT22;52842;52.666;5.202;2023-03-01T13:17:59;18.40;52.90
66057;DHT22;52842;52.666;5.202;2023-03-01T13:20:27;18.30;53.20
66057;DHT22;52842;52.666;5.202;2023-03-01T13:23:07;18.20;53.20
66057;DHT22;52842;52.666;5.202;2023-03-01T13:25:34;18.20;53.10
66057;DHT22;52842;52.666;5.202;2023-03-01T13:30:46;18.20;53.50
66057;DHT22;52842;52.666;5.202;2023-03-01T13:36:00;18.10;54.00
66057;DHT22;52842;52.666;5.202;2023-03-01T13:38:37;18.00;54.20
66057;DHT22;52842;52.666;5.202;2023-03-01T13:41:04;17.90;54.40
66057;DHT22;52842;52.666;5.202;2023-03-01T13:43:31;17.90;54.60
66057;DHT22;52842;52.666;5.202;2023-03-01T13:45:59;17.80;54.70
66057;DHT22;52842;52.666;5.202;2023-03-01T13:48:26;17.80;54.90
66057;DHT22;52842;52.666;5.202;2023-03-01T13:50:54;17.70;55.00
66057;DHT22;52842;52.666;5.202;2023-03-01T13:53:24;17.70;55.20
66057;DHT22;52842;52.666;5.202;2023-03-01T13:55:52;17.70;55.30
66057;DHT22;52842;52.666;5.202;2023-03-01T13:58:23;17.90;54.90
66057;DHT22;52842;52.666;5.202;2023-03-01T14:00:58;18.10;54.50
66057;DHT22;52842;52.666;5.202;2023-03-01T14:03:25;18.40;54.00
66057;DHT22;52842;52.666;5.202;2023-03-01T14:05:59;18.60;53.60
66057;DHT22;52842;52.666;5.202;2023-03-01T14:08:28;18.90;52.90
66057;DHT22;52842;52.666;5.202;2023-03-01T14:13:48;19.50;51.90
66057;DHT22;52842;52.666;5.202;2023-03-01T14:16:24;19.70;51.00
66057;DHT22;52842;52.666;5.202;2023-03-01T14:18:55;20.00;50.60
66057;DHT22;52842;52.666;5.202;2023-03-01T14:21:25;20.20;50.10
66057;DHT22;52842;52.666;5.202;2023-03-01T14:23:53;20.30;49.50
66057;DHT22;52842;52.666;5.202;2023-03-01T14:26:20;20.40;49.20
66057;DHT22;52842;52.666;5.202;2023-03-01T14:28:48;20.50;49.00
66057;DHT22;52842;52.666;5.202;2023-03-01T14:31:32;20.60;48.80
66057;DHT22;52842;52.666;5.202;2023-03-01T14:33:59;20.60;48.60
66057;DHT22;52842;52.666;5.202;2023-03-01T14:36:26;20.60;48.40
66057;DHT22;52842;52.666;5.202;2023-03-01T14:38:54;20.70;48.20
66057;DHT22;52842;52.666;5.202;2023-03-01T14:41:24;20.60;48.40
66057;DHT22;52842;52.666;5.202;2023-03-01T14:43:52;20.40;48.60
66057;DHT22;52842;52.666;5.202;2023-03-01T14:46:22;20.20;49.20
66057;DHT22;52842;52.666;5.202;2023-03-01T14:48:50;20.00;49.70
66057;DHT22;52842;52.666;5.202;2023-03-01T14:51:17;19.90;50.20
66057;DHT22;52842;52.666;5.202;2023-03-01T14:53:44;19.70;50.50
66057;DHT22;52842;52.666;5.202;2023-03-01T14:56:13;19.70;50.90
66057;DHT22;52842;52.666;5.202;2023-03-01T14:58:42;19.50;51.00
66057;DHT22;52842;52.666;5.202;2023-03-01T15:01:10;19.50;51.30
66057;DHT22;52842;52.666;5.202;2023-03-01T15:03:40;19.40;51.30
66057;DHT22;52842;52.666;5.202;2023-03-01T15:06:08;19.30;51.40
66057;DHT22;52842;52.666;5.202;2023-03-01T15:08:35;19.30;51.60
66057;DHT22;52842;52.666;5.202;2023-03-01T15:11:04;19.30;51.60
66057;DHT22;52842;52.666;5.202;2023-03-01T15:13:32;19.30;51.60
66057;DHT22;52842;52.666;5.202;2023-03-01T15:16:06;19.20;51.60
66057;DHT22;52842;52.666;5.202;2023-03-01T15:18:33;19.20;51.60
66057;DHT22;52842;52.666;5.202;2023-03-01T15:21:08;19.20;51.60
66057;DHT22;52842;52.666;5.202;2023-03-01T15:23:35;19.20;51.60
66057;DHT22;52842;52.666;5.202;2023-03-01T15:26:03;19.20;51.60
66057;DHT22;52842;52.666;5.202;2023-03-01T15:28:31;19.20;51.50
66057;DHT22;52842;52.666;5.202;2023-03-01T15:31:02;19.20;51.50
66057;DHT22;52842;52.666;5.202;2023-03-01T15:33:30;19.20;51.40
66057;DHT22;52842;52.666;5.202;2023-03-01T15:35:58;19.20;51.50
66057;DHT22;52842;52.666;5.202;2023-03-01T15:38:32;19.20;51.30
66057;DHT22;52842;52.666;5.202;2023-03-01T15:41:00;19.20;51.30
66057;DHT22;52842;52.666;5.202;2023-03-01T15:43:37;19.20;51.30
66057;DHT22;52842;52.666;5.202;2023-03-01T15:46:05;19.20;51.20
66057;DHT22;52842;52.666;5.202;2023-03-01T15:48:32;19.20;51.30
66057;DHT22;52842;52.666;5.202;2023-03-01T15:50:59;19.20;51.20
66057;DHT22;52842;52.666;5.202;2023-03-01T15:53:26;19.20;51.80
66057;DHT22;52842;52.666;5.202;2023-03-01T15:55:54;19.20;51.10